CheckWX is a tool to help pilots better visualize weather data.  It is not intended as a substitute for an official pre-flight weather briefing.

09:18:21 UTC

SLET TAF
El Trompillo Airport
Santa Cruz, Bolivia
TAF SLET 120400Z 1206/1306 33010KT 9999 BKN010 BKN070 TX33/1220Z TN22 /1210Z PROB30 TEMPO 1209/1212 8000 DZ BKN006 BECMG 1215/1217 BKN017 BECMG 1303/1305 VRB02KT SCT010 BKN023

Dec-12@
06:00 UTC

Dec-12 @ 06:00 UTC

Dec-12@
15:00 UTC

Dec-12 @ 15:00 UTC

TAF SLET 120400Z 1206/1306 33010KT 9999 BKN010 BKN070 TX33/1220Z TN22 /1210Z
Wind
  • 330° at 10 KTS
Cloud Levels
  • Broken at 1,000' AGL
  • Broken at 7,000' AGL

Dec-12@
09:00 UTC

Dec-12 @ 09:00 UTC

Dec-12@
12:00 UTC

Dec-12 @ 12:00 UTC

PROB30 TEMPO 1209/1212 8000 DZ BKN006

Temporary - 30% Likelihood

Temporary - 30% Likelihood during this time.

Conditions
Drizzle
Cloud Levels
  • Broken at 600' AGL

Dec-12@
15:00 UTC

Dec-12 @ 15:00 UTC

Dec-13@
03:00 UTC

Dec-13 @ 03:00 UTC

BECMG 1215/1217 BKN017

Becoming

Becoming Conditions expected by Thu, Dec 12, 2019 @ 17:00 UTC

Wind
  • 330° at 10 KTS
Cloud Levels
  • Broken at 1,700' AGL

Dec-13@
03:00 UTC

Dec-13 @ 03:00 UTC

Dec-13@
06:00 UTC

Dec-13 @ 06:00 UTC

BECMG 1303/1305 VRB02KT SCT010 BKN023

Becoming

Becoming Conditions expected by Fri, Dec 13, 2019 @ 05:00 UTC

Wind
  • Variable at 2 KTS
Cloud Levels
  • Scattered at 1,000' AGL
  • Broken at 2,300' AGL